sensor_id;sensor_type;location;lat;lon;timestamp;temperature;humidity
7496;DHT22;3789;47.064;15.482;2023-09-30T00:01:15;14.00;99.90
7496;DHT22;3789;47.064;15.482;2023-09-30T00:03:42;14.00;99.90
7496;DHT22;3789;47.064;15.482;2023-09-30T00:06:26;14.00;99.90
7496;DHT22;3789;47.064;15.482;2023-09-30T00:08:54;14.10;99.90
7496;DHT22;3789;47.064;15.482;2023-09-30T00:11:26;14.00;99.90
7496;DHT22;3789;47.064;15.482;2023-09-30T00:14:00;14.00;99.90
7496;DHT22;3789;47.064;15.482;2023-09-30T00:16:28;14.00;99.90
7496;DHT22;3789;47.064;15.482;2023-09-30T00:18:59;14.00;99.90
7496;DHT22;3789;47.064;15.482;2023-09-30T00:21:36;14.00;99.90
7496;DHT22;3789;47.064;15.482;2023-09-30T00:24:05;14.00;99.90
7496;DHT22;3789;47.064;15.482;2023-09-30T00:26:34;14.00;99.90
7496;DHT22;3789;47.064;15.482;2023-09-30T00:29:04;14.00;99.90
7496;DHT22;3789;47.064;15.482;2023-09-30T00:31:35;14.00;99.90
7496;DHT22;3789;47.064;15.482;2023-09-30T00:34:04;14.00;99.90
7496;DHT22;3789;47.064;15.482;2023-09-30T00:36:33;13.90;99.90
7496;DHT22;3789;47.064;15.482;2023-09-30T00:39:02;13.90;99.90
7496;DHT22;3789;47.064;15.482;2023-09-30T00:41:32;13.90;99.90
7496;DHT22;3789;47.064;15.482;2023-09-30T00:44:05;13.80;99.90
7496;DHT22;3789;47.064;15.482;2023-09-30T00:46:40;13.80;99.90
7496;DHT22;3789;47.064;15.482;2023-09-30T00:49:12;13.90;99.90
7496;DHT22;3789;47.064;15.482;2023-09-30T00:51:41;13.90;99.90
7496;DHT22;3789;47.064;15.482;2023-09-30T00:54:10;13.80;99.90
7496;DHT22;3789;47.064;15.482;2023-09-30T00:56:48;13.80;99.90
7496;DHT22;3789;47.064;15.482;2023-09-30T00:59:18;13.80;99.90
7496;DHT22;3789;47.064;15.482;2023-09-30T01:01:47;13.70;99.90
7496;DHT22;3789;47.064;15.482;2023-09-30T01:04:16;13.70;99.90
7496;DHT22;3789;47.064;15.482;2023-09-30T01:06:47;13.60;99.90
7496;DHT22;3789;47.064;15.482;2023-09-30T01:09:23;13.60;99.90
7496;DHT22;3789;47.064;15.482;2023-09-30T01:11:54;13.70;99.90
7496;DHT22;3789;47.064;15.482;2023-09-30T01:14:26;13.70;99.90
7496;DHT22;3789;47.064;15.482;2023-09-30T01:16:57;13.80;99.90
7496;DHT22;3789;47.064;15.482;2023-09-30T01:19:28;13.90;99.90
7496;DHT22;3789;47.064;15.482;2023-09-30T01:22:07;13.80;99.90
7496;DHT22;3789;47.064;15.482;2023-09-30T01:24:41;13.70;99.90
7496;DHT22;3789;47.064;15.482;2023-09-30T01:27:10;13.80;99.90
7496;DHT22;3789;47.064;15.482;2023-09-30T01:29:39;13.70;99.90
7496;DHT22;3789;47.064;15.482;2023-09-30T01:32:15;13.70;99.90
7496;DHT22;3789;47.064;15.482;2023-09-30T01:34:46;13.70;99.90
7496;DHT22;3789;47.064;15.482;2023-09-30T01:37:16;13.60;99.90
7496;DHT22;3789;47.064;15.482;2023-09-30T01:39:44;13.50;99.90
7496;DHT22;3789;47.064;15.482;2023-09-30T01:42:15;13.50;99.90
7496;DHT22;3789;47.064;15.482;2023-09-30T01:44:45;13.60;99.90
7496;DHT22;3789;47.064;15.482;2023-09-30T01:47:21;13.60;99.90
7496;DHT22;3789;47.064;15.482;2023-09-30T01:49:50;13.70;99.90
7496;DHT22;3789;47.064;15.482;2023-09-30T01:52:28;13.60;99.90
7496;DHT22;3789;47.064;15.482;2023-09-30T01:54:56;13.70;99.90
7496;DHT22;3789;47.064;15.482;2023-09-30T01:57:25;13.70;99.90
7496;DHT22;3789;47.064;15.482;2023-09-30T01:59:59;13.70;99.90
7496;DHT22;3789;47.064;15.482;2023-09-30T02:02:29;13.70;99.90
7496;DHT22;3789;47.064;15.482;2023-09-30T02:05:02;13.80;99.90
7496;DHT22;3789;47.064;15.482;2023-09-30T02:07:52;13.70;99.90
7496;DHT22;3789;47.064;15.482;2023-09-30T02:10:21;13.60;99.90
7496;DHT22;3789;47.064;15.482;2023-09-30T02:12:59;13.80;99.90
7496;DHT22;3789;47.064;15.482;2023-09-30T02:15:32;13.90;99.90
7496;DHT22;3789;47.064;15.482;2023-09-30T02:18:01;13.80;99.90
7496;DHT22;3789;47.064;15.482;2023-09-30T02:20:31;13.80;99.90
7496;DHT22;3789;47.064;15.482;2023-09-30T02:23:01;13.70;99.90
7496;DHT22;3789;47.064;15.482;2023-09-30T02:25:35;13.60;99.90
7496;DHT22;3789;47.064;15.482;2023-09-30T02:28:06;13.60;99.90
7496;DHT22;3789;47.064;15.482;2023-09-30T02:30:35;13.50;99.90
7496;DHT22;3789;47.064;15.482;2023-09-30T02:33:03;13.50;99.90
7496;DHT22;3789;47.064;15.482;2023-09-30T02:35:34;13.50;99.90
7496;DHT22;3789;47.064;15.482;2023-09-30T02:38:03;13.60;99.90
7496;DHT22;3789;47.064;15.482;2023-09-30T02:40:32;13.80;99.90
7496;DHT22;3789;47.064;15.482;2023-09-30T02:43:03;13.80;99.90
7496;DHT22;3789;47.064;15.482;2023-09-30T02:45:31;13.80;99.90
7496;DHT22;3789;47.064;15.482;2023-09-30T02:48:05;13.80;99.90
7496;DHT22;3789;47.064;15.482;2023-09-30T02:50:38;13.80;99.90
7496;DHT22;3789;47.064;15.482;2023-09-30T02:53:12;13.70;99.90
7496;DHT22;3789;47.064;15.482;2023-09-30T02:55:42;13.70;99.90
7496;DHT22;3789;47.064;15.482;2023-09-30T02:58:12;13.60;99.90
7496;DHT22;3789;47.064;15.482;2023-09-30T03:00:41;13.60;99.90
7496;DHT22;3789;47.064;15.482;2023-09-30T03:03:11;13.50;99.90
7496;DHT22;3789;47.064;15.482;2023-09-30T03:05:42;13.60;99.90
7496;DHT22;3789;47.064;15.482;2023-09-30T03:08:10;13.60;99.90
7496;DHT22;3789;47.064;15.482;2023-09-30T03:10:39;13.70;99.90
7496;DHT22;3789;47.064;15.482;2023-09-30T03:13:10;13.80;99.90
7496;DHT22;3789;47.064;15.482;2023-09-30T03:15:40;13.70;99.90
7496;DHT22;3789;47.064;15.482;2023-09-30T03:18:11;13.80;99.90
7496;DHT22;3789;47.064;15.482;2023-09-30T03:20:42;13.70;99.90
7496;DHT22;3789;47.064;15.482;2023-09-30T03:23:12;13.70;99.90
7496;DHT22;3789;47.064;15.482;2023-09-30T03:25:41;13.70;99.90
7496;DHT22;3789;47.064;15.482;2023-09-30T03:28:12;13.70;99.90
7496;DHT22;3789;47.064;15.482;2023-09-30T03:30:42;13.70;99.90
7496;DHT22;3789;47.064;15.482;2023-09-30T03:33:22;13.60;99.90
7496;DHT22;3789;47.064;15.482;2023-09-30T03:35:50;13.60;99.90
7496;DHT22;3789;47.064;15.482;2023-09-30T03:38:20;13.60;99.90
7496;DHT22;3789;47.064;15.482;2023-09-30T03:40:53;13.60;99.90
7496;DHT22;3789;47.064;15.482;2023-09-30T03:43:24;13.70;99.90
7496;DHT22;3789;47.064;15.482;2023-09-30T03:45:55;13.70;99.90
7496;DHT22;3789;47.064;15.482;2023-09-30T03:48:27;13.70;99.90
7496;DHT22;3789;47.064;15.482;2023-09-30T03:51:15;13.70;99.90
7496;DHT22;3789;47.064;15.482;2023-09-30T03:53:44;13.70;99.90
7496;DHT22;3789;47.064;15.482;2023-09-30T03:56:15;13.70;99.90
7496;DHT22;3789;47.064;15.482;2023-09-30T03:58:47;13.90;99.90
7496;DHT22;3789;47.064;15.482;2023-09-30T04:01:17;13.90;99.90
7496;DHT22;3789;47.064;15.482;2023-09-30T04:03:47;13.80;99.90
7496;DHT22;3789;47.064;15.482;2023-09-30T04:06:15;13.70;99.90
7496;DHT22;3789;47.064;15.482;2023-09-30T04:08:44;13.80;99.90
7496;DHT22;3789;47.064;15.482;2023-09-30T04:11:14;13.80;99.90
7496;DHT22;3789;47.064;15.482;2023-09-30T04:13:47;13.80;99.90
7496;DHT22;3789;47.064;15.482;2023-09-30T04:16:21;13.80;99.90
7496;DHT22;3789;47.064;15.482;2023-09-30T04:18:58;13.80;99.90
7496;DHT22;3789;47.064;15.482;2023-09-30T04:21:27;13.80;99.90
7496;DHT22;3789;47.064;15.482;2023-09-30T04:24:04;13.70;99.90
7496;DHT22;3789;47.064;15.482;2023-09-30T04:26:36;13.80;99.90
7496;DHT22;3789;47.064;15.482;2023-09-30T04:29:08;13.90;99.90
7496;DHT22;3789;47.064;15.482;2023-09-30T04:31:47;13.90;99.90
7496;DHT22;3789;47.064;15.482;2023-09-30T04:34:28;14.00;99.90
7496;DHT22;3789;47.064;15.482;2023-09-30T04:36:58;14.20;99.90
7496;DHT22;3789;47.064;15.482;2023-09-30T04:39:28;14.10;99.90
7496;DHT22;3789;47.064;15.482;2023-09-30T04:41:57;14.10;99.90
7496;DHT22;3789;47.064;15.482;2023-09-30T04:44:29;14.10;99.90
7496;DHT22;3789;47.064;15.482;2023-09-30T04:46:58;14.10;99.90
7496;DHT22;3789;47.064;15.482;2023-09-30T04:49:27;14.10;99.90
7496;DHT22;3789;47.064;15.482;2023-09-30T04:51:58;14.10;99.90
7496;DHT22;3789;47.064;15.482;2023-09-30T04:54:26;14.00;99.90
7496;DHT22;3789;47.064;15.482;2023-09-30T04:57:00;14.00;99.90
7496;DHT22;3789;47.064;15.482;2023-09-30T04:59:29;14.00;99.90
7496;DHT22;3789;47.064;15.482;2023-09-30T05:02:06;14.00;99.90
7496;DHT22;3789;47.064;15.482;2023-09-30T05:04:34;14.20;99.90
7496;DHT22;3789;47.064;15.482;2023-09-30T05:07:04;14.20;99.90
7496;DHT22;3789;47.064;15.482;2023-09-30T05:09:32;14.30;99.90
7496;DHT22;3789;47.064;15.482;2023-09-30T05:12:11;14.20;99.90
7496;DHT22;3789;47.064;15.482;2023-09-30T05:14:39;14.20;99.90
7496;DHT22;3789;47.064;15.482;2023-09-30T05:17:08;14.20;99.90
7496;DHT22;3789;47.064;15.482;2023-09-30T05:19:39;14.20;99.90
7496;DHT22;3789;47.064;15.482;2023-09-30T05:22:16;14.50;99.90
7496;DHT22;3789;47.064;15.482;2023-09-30T05:24:54;14.60;99.90
7496;DHT22;3789;47.064;15.482;2023-09-30T05:27:30;14.70;99.90
7496;DHT22;3789;47.064;15.482;2023-09-30T05:29:59;14.80;99.90
7496;DHT22;3789;47.064;15.482;2023-09-30T05:32:26;14.80;99.90
7496;DHT22;3789;47.064;15.482;2023-09-30T05:34:58;14.90;99.90
7496;DHT22;3789;47.064;15.482;2023-09-30T05:37:28;14.80;99.90
7496;DHT22;3789;47.064;15.482;2023-09-30T05:39:58;15.10;99.90
7496;DHT22;3789;47.064;15.482;2023-09-30T05:42:25;15.20;99.90
7496;DHT22;3789;47.064;15.482;2023-09-30T05:45:08;15.20;99.90
7496;DHT22;3789;47.064;15.482;2023-09-30T05:47:38;15.20;99.90
7496;DHT22;3789;47.064;15.482;2023-09-30T05:50:10;15.20;99.90
7496;DHT22;3789;47.064;15.482;2023-09-30T05:52:44;15.30;99.90
7496;DHT22;3789;47.064;15.482;2023-09-30T05:55:22;15.30;99.90
7496;DHT22;3789;47.064;15.482;2023-09-30T05:57:51;15.30;99.90
7496;DHT22;3789;47.064;15.482;2023-09-30T06:00:23;15.30;99.90
7496;DHT22;3789;47.064;15.482;2023-09-30T06:03:05;15.40;99.90
7496;DHT22;3789;47.064;15.482;2023-09-30T06:05:39;15.30;99.90
7496;DHT22;3789;47.064;15.482;2023-09-30T06:08:12;15.30;99.90
7496;DHT22;3789;47.064;15.482;2023-09-30T06:10:54;15.30;99.90
7496;DHT22;3789;47.064;15.482;2023-09-30T06:13:23;15.20;99.90
7496;DHT22;3789;47.064;15.482;2023-09-30T06:15:55;15.30;99.90
7496;DHT22;3789;47.064;15.482;2023-09-30T06:18:22;15.30;99.90
7496;DHT22;3789;47.064;15.482;2023-09-30T06:20:52;15.30;99.90
7496;DHT22;3789;47.064;15.482;2023-09-30T06:23:23;15.30;99.90
7496;DHT22;3789;47.064;15.482;2023-09-30T06:25:59;15.50;99.90
7496;DHT22;3789;47.064;15.482;2023-09-30T06:28:30;15.90;99.90
7496;DHT22;3789;47.064;15.482;2023-09-30T06:31:01;16.00;99.90
7496;DHT22;3789;47.064;15.482;2023-09-30T06:33:30;16.20;99.90
7496;DHT22;3789;47.064;15.482;2023-09-30T06:36:00;16.20;99.90
7496;DHT22;3789;47.064;15.482;2023-09-30T06:38:29;16.20;99.90
7496;DHT22;3789;47.064;15.482;2023-09-30T06:41:00;16.20;99.90
7496;DHT22;3789;47.064;15.482;2023-09-30T06:43:29;16.40;99.90
7496;DHT22;3789;47.064;15.482;2023-09-30T06:46:07;16.50;99.90
7496;DHT22;3789;47.064;15.482;2023-09-30T06:48:37;16.60;99.90
7496;DHT22;3789;47.064;15.482;2023-09-30T06:51:13;16.80;99.90
7496;DHT22;3789;47.064;15.482;2023-09-30T06:53:44;16.80;99.90
7496;DHT22;3789;47.064;15.482;2023-09-30T06:56:14;16.90;99.90
7496;DHT22;3789;47.064;15.482;2023-09-30T06:58:45;17.10;99.90
7496;DHT22;3789;47.064;15.482;2023-09-30T07:01:18;17.20;99.90
7496;DHT22;3789;47.064;15.482;2023-09-30T07:03:48;17.30;99.90
7496;DHT22;3789;47.064;15.482;2023-09-30T07:06:25;17.20;99.90
7496;DHT22;3789;47.064;15.482;2023-09-30T07:09:02;17.10;99.90
7496;DHT22;3789;47.064;15.482;2023-09-30T07:11:31;17.10;99.90
7496;DHT22;3789;47.064;15.482;2023-09-30T07:14:02;17.10;99.90
7496;DHT22;3789;47.064;15.482;2023-09-30T07:16:30;17.10;99.90
7496;DHT22;3789;47.064;15.482;2023-09-30T07:18:58;17.20;99.90
7496;DHT22;3789;47.064;15.482;2023-09-30T07:21:28;17.00;99.90
7496;DHT22;3789;47.064;15.482;2023-09-30T07:24:07;16.80;99.90
7496;DHT22;3789;47.064;15.482;2023-09-30T07:26:41;16.60;99.90
7496;DHT22;3789;47.064;15.482;2023-09-30T07:29:09;16.60;99.90
7496;DHT22;3789;47.064;15.482;2023-09-30T07:31:38;16.80;99.90
7496;DHT22;3789;47.064;15.482;2023-09-30T07:34:08;16.90;99.90
7496;DHT22;3789;47.064;15.482;2023-09-30T07:36:41;17.00;99.90
7496;DHT22;3789;47.064;15.482;2023-09-30T07:39:14;17.20;99.90
7496;DHT22;3789;47.064;15.482;2023-09-30T07:41:43;17.10;99.90
7496;DHT22;3789;47.064;15.482;2023-09-30T07:44:14;17.10;99.90
7496;DHT22;3789;47.064;15.482;2023-09-30T07:46:43;17.20;99.90
7496;DHT22;3789;47.064;15.482;2023-09-30T07:49:13;17.20;99.90
7496;DHT22;3789;47.064;15.482;2023-09-30T07:51:41;17.20;99.90
7496;DHT22;3789;47.064;15.482;2023-09-30T07:54:09;17.20;99.90
7496;DHT22;3789;47.064;15.482;2023-09-30T07:56:59;17.20;99.90
7496;DHT22;3789;47.064;15.482;2023-09-30T07:59:38;17.50;99.90
7496;DHT22;3789;47.064;15.482;2023-09-30T08:02:09;17.60;99.90
7496;DHT22;3789;47.064;15.482;2023-09-30T08:04:41;17.70;99.90
7496;DHT22;3789;47.064;15.482;2023-09-30T08:07:29;17.80;99.90
7496;DHT22;3789;47.064;15.482;2023-09-30T08:09:59;17.80;99.90
7496;DHT22;3789;47.064;15.482;2023-09-30T08:12:28;17.90;99.90
7496;DHT22;3789;47.064;15.482;2023-09-30T08:14:58;18.10;99.90
7496;DHT22;3789;47.064;15.482;2023-09-30T08:17:30;18.20;99.90
7496;DHT22;3789;47.064;15.482;2023-09-30T08:20:00;18.30;99.90
7496;DHT22;3789;47.064;15.482;2023-09-30T08:22:38;18.40;99.90
7496;DHT22;3789;47.064;15.482;2023-09-30T08:25:10;18.40;99.90
7496;DHT22;3789;47.064;15.482;2023-09-30T08:27:38;18.40;99.90
7496;DHT22;3789;47.064;15.482;2023-09-30T08:30:08;18.40;99.90
7496;DHT22;3789;47.064;15.482;2023-09-30T08:32:38;18.40;99.90
7496;DHT22;3789;47.064;15.482;2023-09-30T08:35:09;18.50;99.90
7496;DHT22;3789;47.064;15.482;2023-09-30T08:37:38;18.40;99.90
7496;DHT22;3789;47.064;15.482;2023-09-30T08:40:07;18.40;99.90
7496;DHT22;3789;47.064;15.482;2023-09-30T08:42:41;18.50;99.90
7496;DHT22;3789;47.064;15.482;2023-09-30T08:45:10;18.40;99.90
7496;DHT22;3789;47.064;15.482;2023-09-30T08:47:44;18.40;99.90
7496;DHT22;3789;47.064;15.482;2023-09-30T08:50:17;18.20;99.90
7496;DHT22;3789;47.064;15.482;2023-09-30T08:52:47;18.10;99.90
7496;DHT22;3789;47.064;15.482;2023-09-30T08:55:17;18.10;99.90
7496;DHT22;3789;47.064;15.482;2023-09-30T08:57:44;18.10;99.90
7496;DHT22;3789;47.064;15.482;2023-09-30T09:00:16;18.00;99.90
7496;DHT22;3789;47.064;15.482;2023-09-30T09:02:44;18.10;99.90
7496;DHT22;3789;47.064;15.482;2023-09-30T09:05:15;18.00;99.90
7496;DHT22;3789;47.064;15.482;2023-09-30T09:08:03;17.90;99.90
7496;DHT22;3789;47.064;15.482;2023-09-30T09:10:33;17.90;99.90
7496;DHT22;3789;47.064;15.482;2023-09-30T09:13:02;17.90;99.90
7496;DHT22;3789;47.064;15.482;2023-09-30T09:15:32;18.00;99.90
7496;DHT22;3789;47.064;15.482;2023-09-30T09:18:01;18.00;99.90
7496;DHT22;3789;47.064;15.482;2023-09-30T09:20:32;18.00;99.90
7496;DHT22;3789;47.064;15.482;2023-09-30T09:23:06;18.10;99.90
7496;DHT22;3789;47.064;15.482;2023-09-30T09:25:40;18.20;99.90
7496;DHT22;3789;47.064;15.482;2023-09-30T09:28:10;18.40;99.90
7496;DHT22;3789;47.064;15.482;2023-09-30T09:30:39;18.40;99.90
7496;DHT22;3789;47.064;15.482;2023-09-30T09:33:10;18.30;99.90
7496;DHT22;3789;47.064;15.482;2023-09-30T09:35:50;18.30;99.90
7496;DHT22;3789;47.064;15.482;2023-09-30T09:38:19;18.20;99.90
7496;DHT22;3789;47.064;15.482;2023-09-30T09:40:47;18.30;99.90
7496;DHT22;3789;47.064;15.482;2023-09-30T09:43:19;18.40;99.90
7496;DHT22;3789;47.064;15.482;2023-09-30T09:45:47;18.60;99.90
7496;DHT22;3789;47.064;15.482;2023-09-30T09:48:19;18.70;99.90
7496;DHT22;3789;47.064;15.482;2023-09-30T09:50:47;18.80;99.90
7496;DHT22;3789;47.064;15.482;2023-09-30T09:53:22;18.90;99.90
7496;DHT22;3789;47.064;15.482;2023-09-30T09:55:52;19.00;99.90
7496;DHT22;3789;47.064;15.482;2023-09-30T09:58:35;19.00;99.90
7496;DHT22;3789;47.064;15.482;2023-09-30T10:01:15;19.20;99.90
7496;DHT22;3789;47.064;15.482;2023-09-30T10:03:52;19.20;99.90
7496;DHT22;3789;47.064;15.482;2023-09-30T10:06:19;19.40;99.90
7496;DHT22;3789;47.064;15.482;2023-09-30T10:08:51;19.40;99.90
7496;DHT22;3789;47.064;15.482;2023-09-30T10:11:20;19.60;99.90
7496;DHT22;3789;47.064;15.482;2023-09-30T10:13:53;19.70;99.90
7496;DHT22;3789;47.064;15.482;2023-09-30T10:19:20;20.20;99.90
7496;DHT22;3789;47.064;15.482;2023-09-30T10:22:21;20.40;99.90
7496;DHT22;3789;47.064;15.482;2023-09-30T10:24:57;20.50;99.90
7496;DHT22;3789;47.064;15.482;2023-09-30T10:27:31;20.80;99.90
7496;DHT22;3789;47.064;15.482;2023-09-30T10:30:07;20.80;99.90
7496;DHT22;3789;47.064;15.482;2023-09-30T10:40:56;20.60;99.90
7496;DHT22;3789;47.064;15.482;2023-09-30T10:43:39;20.70;99.90
7496;DHT22;3789;47.064;15.482;2023-09-30T10:46:32;20.90;99.90
7496;DHT22;3789;47.064;15.482;2023-09-30T10:49:30;21.00;99.90
7496;DHT22;3789;47.064;15.482;2023-09-30T10:52:00;20.90;99.90
7496;DHT22;3789;47.064;15.482;2023-09-30T10:54:33;20.80;99.90
7496;DHT22;3789;47.064;15.482;2023-09-30T10:57:01;20.80;99.90
7496;DHT22;3789;47.064;15.482;2023-09-30T10:59:38;21.10;99.90
7496;DHT22;3789;47.064;15.482;2023-09-30T11:02:19;21.40;99.90
7496;DHT22;3789;47.064;15.482;2023-09-30T11:04:51;21.30;99.90
7496;DHT22;3789;47.064;15.482;2023-09-30T11:07:29;21.30;99.90
7496;DHT22;3789;47.064;15.482;2023-09-30T11:10:03;21.50;99.90
7496;DHT22;3789;47.064;15.482;2023-09-30T11:12:56;21.50;99.90
7496;DHT22;3789;47.064;15.482;2023-09-30T11:15:27;21.70;99.90
7496;DHT22;3789;47.064;15.482;2023-09-30T11:18:15;21.80;99.90
7496;DHT22;3789;47.064;15.482;2023-09-30T11:21:07;21.80;99.90
7496;DHT22;3789;47.064;15.482;2023-09-30T11:23:56;21.80;99.90
7496;DHT22;3789;47.064;15.482;2023-09-30T11:26:33;21.90;99.90
7496;DHT22;3789;47.064;15.482;2023-09-30T11:29:14;22.00;99.90
7496;DHT22;3789;47.064;15.482;2023-09-30T11:31:52;22.10;99.90
7496;DHT22;3789;47.064;15.482;2023-09-30T11:34:33;22.20;99.90
7496;DHT22;3789;47.064;15.482;2023-09-30T11:37:09;22.40;99.90
7496;DHT22;3789;47.064;15.482;2023-09-30T11:39:38;22.40;99.90
7496;DHT22;3789;47.064;15.482;2023-09-30T11:42:19;22.50;99.90
7496;DHT22;3789;47.064;15.482;2023-09-30T11:44:47;22.50;99.90
7496;DHT22;3789;47.064;15.482;2023-09-30T11:47:28;22.50;99.90
7496;DHT22;3789;47.064;15.482;2023-09-30T11:49:58;22.60;99.90
7496;DHT22;3789;47.064;15.482;2023-09-30T11:52:27;22.60;99.90
7496;DHT22;3789;47.064;15.482;2023-09-30T11:54:57;22.70;99.90
7496;DHT22;3789;47.064;15.482;2023-09-30T11:57:26;22.70;99.90
7496;DHT22;3789;47.064;15.482;2023-09-30T11:59:56;22.70;99.90
7496;DHT22;3789;47.064;15.482;2023-09-30T12:02:32;22.80;99.90
7496;DHT22;3789;47.064;15.482;2023-09-30T12:05:08;22.90;99.90
7496;DHT22;3789;47.064;15.482;2023-09-30T12:07:38;22.90;99.90
7496;DHT22;3789;47.064;15.482;2023-09-30T12:10:16;22.90;99.90
7496;DHT22;3789;47.064;15.482;2023-09-30T12:12:45;22.80;99.90
7496;DHT22;3789;47.064;15.482;2023-09-30T12:15:21;22.90;99.90
7496;DHT22;3789;47.064;15.482;2023-09-30T12:17:59;22.90;99.90
7496;DHT22;3789;47.064;15.482;2023-09-30T12:20:30;22.80;99.90
7496;DHT22;3789;47.064;15.482;2023-09-30T12:23:00;22.90;99.90
7496;DHT22;3789;47.064;15.482;2023-09-30T12:25:31;22.90;99.90
7496;DHT22;3789;47.064;15.482;2023-09-30T12:28:02;22.90;99.90
7496;DHT22;3789;47.064;15.482;2023-09-30T12:30:34;22.80;99.90
7496;DHT22;3789;47.064;15.482;2023-09-30T12:33:10;22.80;99.90
7496;DHT22;3789;47.064;15.482;2023-09-30T12:35:40;22.80;99.90
7496;DHT22;3789;47.064;15.482;2023-09-30T12:38:08;22.80;99.90
7496;DHT22;3789;47.064;15.482;2023-09-30T12:40:35;22.70;99.90
7496;DHT22;3789;47.064;15.482;2023-09-30T12:43:03;22.60;99.90
7496;DHT22;3789;47.064;15.482;2023-09-30T12:45:35;22.60;99.90
7496;DHT22;3789;47.064;15.482;2023-09-30T12:48:09;22.50;99.90
7496;DHT22;3789;47.064;15.482;2023-09-30T12:50:41;22.90;99.90
7496;DHT22;3789;47.064;15.482;2023-09-30T12:53:11;23.10;99.90
7496;DHT22;3789;47.064;15.482;2023-09-30T12:55:40;23.20;99.90
7496;DHT22;3789;47.064;15.482;2023-09-30T12:58:09;23.30;99.90
7496;DHT22;3789;47.064;15.482;2023-09-30T13:00:38;23.20;99.90
7496;DHT22;3789;47.064;15.482;2023-09-30T13:03:05;23.20;99.90
7496;DHT22;3789;47.064;15.482;2023-09-30T13:05:37;23.40;99.90
7496;DHT22;3789;47.064;15.482;2023-09-30T13:08:05;23.40;99.90
7496;DHT22;3789;47.064;15.482;2023-09-30T13:10:35;23.40;99.90
7496;DHT22;3789;47.064;15.482;2023-09-30T13:13:07;23.20;99.90
7496;DHT22;3789;47.064;15.482;2023-09-30T13:15:36;23.10;99.90
7496;DHT22;3789;47.064;15.482;2023-09-30T13:18:07;23.00;99.90
7496;DHT22;3789;47.064;15.482;2023-09-30T13:20:38;23.10;99.90
7496;DHT22;3789;47.064;15.482;2023-09-30T13:23:07;23.10;99.90
7496;DHT22;3789;47.064;15.482;2023-09-30T13:25:36;23.10;99.90
7496;DHT22;3789;47.064;15.482;2023-09-30T13:28:05;23.20;99.90
7496;DHT22;3789;47.064;15.482;2023-09-30T13:30:35;23.50;99.90
7496;DHT22;3789;47.064;15.482;2023-09-30T13:33:05;23.50;99.90
7496;DHT22;3789;47.064;15.482;2023-09-30T13:35:36;23.60;99.90
7496;DHT22;3789;47.064;15.482;2023-09-30T13:38:07;23.50;99.90
7496;DHT22;3789;47.064;15.482;2023-09-30T13:40:43;23.50;99.90
7496;DHT22;3789;47.064;15.482;2023-09-30T13:43:13;23.50;99.90
7496;DHT22;3789;47.064;15.482;2023-09-30T13:45:42;23.50;99.90
7496;DHT22;3789;47.064;15.482;2023-09-30T13:48:13;23.50;99.90
7496;DHT22;3789;47.064;15.482;2023-09-30T13:50:41;23.40;99.90
7496;DHT22;3789;47.064;15.482;2023-09-30T13:53:11;23.40;99.90
7496;DHT22;3789;47.064;15.482;2023-09-30T13:55:41;23.30;99.90
7496;DHT22;3789;47.064;15.482;2023-09-30T13:58:13;23.40;99.90
7496;DHT22;3789;47.064;15.482;2023-09-30T14:00:46;23.50;99.90
7496;DHT22;3789;47.064;15.482;2023-09-30T14:03:17;23.60;99.90
7496;DHT22;3789;47.064;15.482;2023-09-30T14:05:46;23.50;99.90
7496;DHT22;3789;47.064;15.482;2023-09-30T14:08:16;23.50;99.90
7496;DHT22;3789;47.064;15.482;2023-09-30T14:10:51;23.60;99.90
7496;DHT22;3789;47.064;15.482;2023-09-30T14:13:20;23.50;99.90
7496;DHT22;3789;47.064;15.482;2023-09-30T14:16:00;23.50;99.90
7496;DHT22;3789;47.064;15.482;2023-09-30T14:18:29;23.30;99.90
7496;DHT22;3789;47.064;15.482;2023-09-30T14:20:59;23.20;99.90
7496;DHT22;3789;47.064;15.482;2023-09-30T14:23:30;23.20;99.90
7496;DHT22;3789;47.064;15.482;2023-09-30T14:26:06;23.30;99.90
7496;DHT22;3789;47.064;15.482;2023-09-30T14:28:40;23.30;99.90
7496;DHT22;3789;47.064;15.482;2023-09-30T14:31:10;23.30;99.90
7496;DHT22;3789;47.064;15.482;2023-09-30T14:33:39;23.20;99.90
7496;DHT22;3789;47.064;15.482;2023-09-30T14:36:10;23.20;99.90
7496;DHT22;3789;47.064;15.482;2023-09-30T14:38:39;23.10;99.90
7496;DHT22;3789;47.064;15.482;2023-09-30T14:41:10;23.10;99.90
7496;DHT22;3789;47.064;15.482;2023-09-30T14:43:40;23.30;99.90
7496;DHT22;3789;47.064;15.482;2023-09-30T14:46:08;23.20;99.90
7496;DHT22;3789;47.064;15.482;2023-09-30T14:48:39;23.40;99.90
7496;DHT22;3789;47.064;15.482;2023-09-30T14:51:07;23.50;99.90
7496;DHT22;3789;47.064;15.482;2023-09-30T14:53:45;23.30;99.90
7496;DHT22;3789;47.064;15.482;2023-09-30T14:56:17;23.20;99.90
7496;DHT22;3789;47.064;15.482;2023-09-30T14:58:55;23.10;99.90
7496;DHT22;3789;47.064;15.482;2023-09-30T15:01:26;23.00;99.90
7496;DHT22;3789;47.064;15.482;2023-09-30T15:03:56;22.90;99.90
7496;DHT22;3789;47.064;15.482;2023-09-30T15:06:24;23.10;99.90
7496;DHT22;3789;47.064;15.482;2023-09-30T15:08:55;22.90;99.90
7496;DHT22;3789;47.064;15.482;2023-09-30T15:11:25;22.90;99.90
7496;DHT22;3789;47.064;15.482;2023-09-30T15:14:02;22.90;99.90
7496;DHT22;3789;47.064;15.482;2023-09-30T15:16:30;23.00;99.90
7496;DHT22;3789;47.064;15.482;2023-09-30T15:19:00;22.90;99.90
7496;DHT22;3789;47.064;15.482;2023-09-30T15:21:29;22.80;99.90
7496;DHT22;3789;47.064;15.482;2023-09-30T15:23:59;22.80;99.90
7496;DHT22;3789;47.064;15.482;2023-09-30T15:26:31;22.80;99.90
7496;DHT22;3789;47.064;15.482;2023-09-30T15:29:09;22.70;99.90
7496;DHT22;3789;47.064;15.482;2023-09-30T15:31:37;22.70;99.90
7496;DHT22;3789;47.064;15.482;2023-09-30T15:34:06;22.60;99.90
7496;DHT22;3789;47.064;15.482;2023-09-30T15:36:36;22.60;99.90
7496;DHT22;3789;47.064;15.482;2023-09-30T15:39:11;22.50;99.90
7496;DHT22;3789;47.064;15.482;2023-09-30T15:41:40;22.40;99.90
7496;DHT22;3789;47.064;15.482;2023-09-30T15:44:09;22.20;99.90
7496;DHT22;3789;47.064;15.482;2023-09-30T15:46:44;22.20;99.90
7496;DHT22;3789;47.064;15.482;2023-09-30T15:49:14;22.00;99.90
7496;DHT22;3789;47.064;15.482;2023-09-30T15:51:42;22.00;99.90
7496;DHT22;3789;47.064;15.482;2023-09-30T15:54:11;22.00;99.90
7496;DHT22;3789;47.064;15.482;2023-09-30T15:56:41;22.00;99.90
7496;DHT22;3789;47.064;15.482;2023-09-30T15:59:23;21.80;99.90
7496;DHT22;3789;47.064;15.482;2023-09-30T16:01:52;21.70;99.90
7496;DHT22;3789;47.064;15.482;2023-09-30T16:04:20;21.50;99.90
7496;DHT22;3789;47.064;15.482;2023-09-30T16:06:52;21.20;99.90
7496;DHT22;3789;47.064;15.482;2023-09-30T16:09:22;21.10;99.90
7496;DHT22;3789;47.064;15.482;2023-09-30T16:11:53;20.90;99.90
7496;DHT22;3789;47.064;15.482;2023-09-30T16:14:26;20.90;99.90
7496;DHT22;3789;47.064;15.482;2023-09-30T16:16:56;20.70;99.90
7496;DHT22;3789;47.064;15.482;2023-09-30T16:19:25;20.60;99.90
7496;DHT22;3789;47.064;15.482;2023-09-30T16:21:55;20.50;99.90
7496;DHT22;3789;47.064;15.482;2023-09-30T16:24:24;20.50;99.90
7496;DHT22;3789;47.064;15.482;2023-09-30T16:26:54;20.60;99.90